Time;durP1;ratioP1;P1;durP2;ratioP2;P2;SDS_P1;SDS_P2;PMS_P1;PMS_P2;Temp;Humidity;BMP_temperature;BMP_pressure;BME280_temperature;BME280_humidity;BME280_pressure;Samples;Min_cycle;Max_cycle;Signal;HPM_P1;HPM_P2
2024/01/25 00:01:36;;;;;;;7.10;2.30;;;9.10;99.90;;;;;;4994964;28;20056;-66
2024/01/25 00:04:01;;;;;;;7.03;1.42;;;9.00;99.90;;;;;;5015608;28;20030;-64
2024/01/25 00:06:27;;;;;;;8.65;1.83;;;9.00;99.90;;;;;;5009314;28;20033;-68
2024/01/25 00:08:52;;;;;;;9.65;1.83;;;9.00;99.90;;;;;;5009229;28;20322;-67
2024/01/25 00:11:18;;;;;;;7.90;2.20;;;9.10;99.90;;;;;;5010999;28;20482;-70
2024/01/25 00:13:43;;;;;;;8.10;1.67;;;9.10;99.90;;;;;;5015413;28;20485;-75
2024/01/25 00:16:09;;;;;;;6.75;1.48;;;9.10;99.90;;;;;;5010507;28;20667;-67
2024/01/25 00:18:35;;;;;;;7.43;1.52;;;9.10;99.90;;;;;;5019631;28;20063;-66
2024/01/25 00:21:00;;;;;;;14.77;1.60;;;9.00;99.90;;;;;;5014097;28;20091;-67
2024/01/25 00:23:26;;;;;;;7.72;1.98;;;8.90;99.90;;;;;;5022057;28;20033;-64
2024/01/25 00:25:52;;;;;;;7.20;1.92;;;8.90;99.90;;;;;;5021728;28;20033;-64
2024/01/25 00:28:17;;;;;;;8.45;1.38;;;8.80;99.90;;;;;;5024100;28;20506;-64
2024/01/25 00:30:43;;;;;;;8.10;1.67;;;8.80;99.90;;;;;;5024053;28;20119;-69
2024/01/25 00:33:08;;;;;;;7.22;2.00;;;8.80;99.90;;;;;;5000745;28;20033;-70
2024/01/25 00:35:34;;;;;;;5.28;1.42;;;8.80;99.90;;;;;;5015795;28;20818;-70
2024/01/25 00:38:01;;;;;;;10.32;1.83;;;8.80;99.90;;;;;;5015321;28;20059;-74
2024/01/25 00:40:26;;;;;;;6.18;1.42;;;8.80;99.90;;;;;;5019780;28;20402;-71
2024/01/25 00:42:53;;;;;;;9.02;1.98;;;8.80;99.90;;;;;;5014844;28;20037;-66
2024/01/25 00:45:19;;;;;;;6.63;2.10;;;8.80;99.90;;;;;;5015603;28;20049;-66
2024/01/25 00:47:45;;;;;;;9.38;2.10;;;8.80;99.90;;;;;;5017351;28;20412;-66
2024/01/25 00:50:12;;;;;;;10.65;2.00;;;8.80;99.90;;;;;;5018410;28;20595;-65
2024/01/25 00:52:38;;;;;;;6.55;1.45;;;8.70;99.90;;;;;;5020528;28;20582;-66
2024/01/25 00:55:04;;;;;;;8.38;1.85;;;8.80;99.90;;;;;;5015280;28;20795;-64
2024/01/25 00:57:30;;;;;;;5.85;1.95;;;8.80;99.90;;;;;;5016250;28;20156;-63
2024/01/25 00:59:58;;;;;;;10.23;1.80;;;8.80;99.90;;;;;;5012066;28;20053;-70
2024/01/25 01:02:23;;;;;;;8.23;1.48;;;8.80;99.90;;;;;;5011608;28;20649;-64
2024/01/25 01:04:49;;;;;;;7.75;2.35;;;8.70;99.90;;;;;;4994595;28;20033;-70
2024/01/25 01:07:15;;;;;;;9.13;1.90;;;8.70;99.90;;;;;;5014989;28;20083;-68
2024/01/25 01:09:41;;;;;;;10.27;2.08;;;8.60;99.90;;;;;;5005065;28;20025;-65
2024/01/25 01:12:07;;;;;;;8.13;2.00;;;8.60;99.90;;;;;;4984720;28;20600;-64
2024/01/25 01:14:33;;;;;;;5.07;1.60;;;8.50;99.90;;;;;;4970654;28;20091;-72
2024/01/25 01:16:58;;;;;;;9.95;1.58;;;8.50;99.90;;;;;;4999852;28;20406;-71
2024/01/25 01:19:24;;;;;;;10.02;1.80;;;8.40;99.90;;;;;;4999874;28;20055;-66
2024/01/25 01:21:50;;;;;;;8.95;1.85;;;8.40;99.90;;;;;;5003255;28;20020;-65
2024/01/25 01:24:15;;;;;;;8.80;1.80;;;8.40;99.90;;;;;;4990166;28;20575;-65
2024/01/25 01:26:41;;;;;;;8.55;1.95;;;8.40;99.90;;;;;;4993903;28;20026;-64
2024/01/25 01:29:08;;;;;;;7.20;1.85;;;8.30;99.90;;;;;;5001910;28;20025;-65
2024/01/25 01:31:33;;;;;;;3.92;0.98;;;8.30;99.90;;;;;;4998271;28;20037;-79
2024/01/25 01:34:00;;;;;;;8.18;1.40;;;8.40;99.90;;;;;;4985952;28;20030;-65
2024/01/25 01:36:26;;;;;;;7.20;1.67;;;8.40;99.90;;;;;;5001501;28;20149;-65
2024/01/25 01:38:51;;;;;;;5.82;1.10;;;8.50;99.90;;;;;;5001918;28;20033;-66
2024/01/25 01:41:17;;;;;;;7.78;1.45;;;8.60;99.90;;;;;;5002357;28;20021;-66
2024/01/25 01:45:05;;;;;;;6.60;1.40;;;8.70;99.90;;;;;;4637730;27;11156232;-66
2024/01/25 01:47:31;;;;;;;6.82;1.90;;;8.80;99.90;;;;;;5023784;28;20035;-65
2024/01/25 01:49:57;;;;;;;4.85;1.42;;;8.80;99.90;;;;;;5011559;28;20048;-64
2024/01/25 01:52:22;;;;;;;11.70;2.25;;;8.80;99.90;;;;;;5014625;28;20128;-64
2024/01/25 01:54:48;;;;;;;7.57;1.30;;;8.90;99.90;;;;;;5011836;28;20026;-65
2024/01/25 01:57:14;;;;;;;7.95;1.80;;;8.90;99.90;;;;;;5015402;28;20033;-68
2024/01/25 01:59:40;;;;;;;9.75;1.73;;;8.80;99.90;;;;;;5015246;28;20037;-68
2024/01/25 02:02:07;;;;;;;9.40;1.63;;;8.90;99.90;;;;;;5009421;28;20044;-66
2024/01/25 02:04:32;;;;;;;6.97;1.50;;;8.80;99.90;;;;;;5016764;28;20033;-66
2024/01/25 02:06:58;;;;;;;8.18;1.45;;;8.80;99.90;;;;;;5018737;28;20041;-72
2024/01/25 02:09:23;;;;;;;7.50;1.55;;;8.80;99.90;;;;;;5020413;28;20386;-68
2024/01/25 02:12:00;;;;;;;7.68;1.67;;;8.80;99.90;;;;;;5016111;28;20482;-69
2024/01/25 02:14:25;;;;;;;5.70;1.23;;;8.80;99.90;;;;;;5015473;28;20056;-68
2024/01/25 02:16:51;;;;;;;2.45;0.40;;;8.80;99.90;;;;;;5011597;28;20105;-69
2024/01/25 02:19:16;;;;;;;9.52;2.05;;;8.80;99.90;;;;;;5015197;28;20220;-67
2024/01/25 02:21:42;;;;;;;5.88;1.48;;;8.90;99.90;;;;;;5020540;28;20560;-68
2024/01/25 02:24:08;;;;;;;8.00;2.07;;;8.90;99.90;;;;;;5017304;28;20881;-72
2024/01/25 02:26:34;;;;;;;5.13;1.55;;;8.90;99.90;;;;;;5016195;28;20029;-64
2024/01/25 02:29:00;;;;;;;7.28;1.55;;;8.80;99.90;;;;;;5022862;28;20029;-64
2024/01/25 02:31:26;;;;;;;7.75;1.73;;;8.80;99.90;;;;;;5023847;28;20044;-65
2024/01/25 02:33:51;;;;;;;6.35;1.65;;;8.80;99.90;;;;;;5019651;28;20602;-69
2024/01/25 02:36:17;;;;;;;6.78;1.80;;;8.80;99.90;;;;;;5014328;28;20024;-68
2024/01/25 02:38:42;;;;;;;5.55;1.27;;;8.70;99.90;;;;;;5033207;28;20476;-65
2024/01/25 02:41:08;;;;;;;9.85;1.63;;;8.70;99.90;;;;;;5016844;28;20581;-70
2024/01/25 02:43:34;;;;;;;10.25;2.30;;;8.60;99.90;;;;;;5024168;28;20140;-74
2024/01/25 02:45:59;;;;;;;5.10;1.70;;;8.60;99.90;;;;;;5041025;28;20247;-65
2024/01/25 02:48:25;;;;;;;7.72;1.63;;;8.70;99.90;;;;;;5042599;28;20470;-71
2024/01/25 02:50:51;;;;;;;6.65;1.20;;;8.60;99.90;;;;;;5042270;28;20055;-65
2024/01/25 02:53:17;;;;;;;10.23;2.10;;;8.70;99.90;;;;;;5038721;28;20338;-64
2024/01/25 02:55:42;;;;;;;8.05;2.00;;;8.60;99.90;;;;;;5031950;28;20147;-65
2024/01/25 02:58:08;;;;;;;8.00;2.08;;;8.60;99.90;;;;;;5022479;28;20710;-66
2024/01/25 03:00:33;;;;;;;6.68;1.90;;;8.60;99.90;;;;;;5025696;28;20025;-65
2024/01/25 03:02:59;;;;;;;6.68;1.40;;;8.50;99.90;;;;;;5029636;28;20518;-65
2024/01/25 03:05:24;;;;;;;10.27;2.17;;;8.50;99.90;;;;;;5032248;28;20028;-65
2024/01/25 03:07:50;;;;;;;5.97;1.88;;;8.50;99.90;;;;;;5032632;28;20493;-64
2024/01/25 03:10:16;;;;;;;6.88;1.88;;;8.60;99.90;;;;;;5027807;28;23483;-65
2024/01/25 03:12:41;;;;;;;12.38;2.33;;;8.60;99.90;;;;;;5030561;28;20025;-65
2024/01/25 03:15:09;;;;;;;7.80;1.75;;;8.60;99.90;;;;;;5024763;28;20063;-66
2024/01/25 03:17:34;;;;;;;10.43;2.17;;;8.60;99.90;;;;;;5028426;28;20492;-72
2024/01/25 03:20:00;;;;;;;11.57;2.13;;;8.70;99.90;;;;;;5015973;28;20078;-65
2024/01/25 03:22:25;;;;;;;7.63;1.63;;;8.70;99.90;;;;;;5014858;28;20037;-68
2024/01/25 03:24:51;;;;;;;6.65;2.00;;;8.80;99.90;;;;;;5027495;28;20072;-65
2024/01/25 03:27:17;;;;;;;6.95;2.03;;;8.70;99.90;;;;;;5027171;28;20028;-64
2024/01/25 03:29:43;;;;;;;8.95;2.17;;;8.70;99.90;;;;;;5024020;28;20045;-64
2024/01/25 03:32:10;;;;;;;8.25;1.67;;;8.60;99.90;;;;;;5025638;28;20032;-65
2024/01/25 03:34:35;;;;;;;7.35;1.50;;;8.60;99.90;;;;;;5024758;28;20044;-65
2024/01/25 03:37:01;;;;;;;5.88;1.40;;;8.60;99.90;;;;;;5029432;28;20036;-65
2024/01/25 03:39:26;;;;;;;6.15;1.50;;;8.60;99.90;;;;;;5028148;28;20033;-66
2024/01/25 03:41:52;;;;;;;7.97;1.60;;;8.50;99.90;;;;;;5026414;28;22077;-65
2024/01/25 03:44:17;;;;;;;12.90;2.17;;;8.50;99.90;;;;;;5033087;28;20111;-64
2024/01/25 03:46:43;;;;;;;7.45;1.75;;;8.50;99.90;;;;;;5024652;28;20552;-68
2024/01/25 03:49:09;;;;;;;7.00;1.85;;;8.50;99.90;;;;;;5028740;28;20123;-65
2024/01/25 03:51:34;;;;;;;6.13;1.48;;;8.50;99.90;;;;;;5024503;28;20033;-67
2024/01/25 03:54:00;;;;;;;6.68;1.90;;;8.50;99.90;;;;;;5029937;28;20036;-66
2024/01/25 03:56:26;;;;;;;9.90;1.95;;;8.50;99.90;;;;;;5026357;28;20021;-69
2024/01/25 03:58:52;;;;;;;8.27;1.80;;;8.50;99.90;;;;;;5024037;28;20158;-67
2024/01/25 04:01:18;;;;;;;8.52;1.40;;;8.50;99.90;;;;;;5007909;28;20033;-67
2024/01/25 04:03:43;;;;;;;8.95;2.28;;;8.50;99.90;;;;;;5027596;28;20053;-65
2024/01/25 04:06:09;;;;;;;9.20;1.60;;;8.50;99.90;;;;;;5026773;28;20049;-65
2024/01/25 04:08:34;;;;;;;8.45;1.70;;;8.40;99.90;;;;;;5025944;28;20481;-67
2024/01/25 04:11:00;;;;;;;6.75;1.30;;;8.40;99.90;;;;;;5021261;28;20473;-66
2024/01/25 04:13:26;;;;;;;9.85;2.00;;;8.40;99.90;;;;;;5021583;28;20052;-66
2024/01/25 04:15:51;;;;;;;8.20;1.60;;;8.40;99.90;;;;;;5023979;28;20028;-67
2024/01/25 04:18:17;;;;;;;9.57;1.90;;;8.30;99.90;;;;;;5025277;28;20849;-67
2024/01/25 04:20:44;;;;;;;9.00;2.10;;;8.40;99.90;;;;;;5027886;28;20411;-65
2024/01/25 04:23:09;;;;;;;8.27;1.40;;;8.40;99.90;;;;;;5026943;28;20094;-68
2024/01/25 04:25:35;;;;;;;6.80;1.75;;;8.30;99.90;;;;;;5024574;28;20033;-67
2024/01/25 04:28:01;;;;;;;8.38;1.77;;;8.30;99.90;;;;;;5026381;28;20057;-67
2024/01/25 04:30:27;;;;;;;6.65;1.52;;;8.30;99.90;;;;;;5024257;28;21235;-65
2024/01/25 04:32:52;;;;;;;6.03;2.10;;;8.30;99.90;;;;;;5025369;28;20461;-68
2024/01/25 04:35:18;;;;;;;5.10;1.40;;;8.30;99.90;;;;;;5030359;28;20069;-66
2024/01/25 04:37:44;;;;;;;11.13;2.60;;;8.30;99.90;;;;;;5025564;28;20033;-66
2024/01/25 04:40:10;;;;;;;11.70;1.40;;;8.20;99.90;;;;;;5025922;28;20039;-75
2024/01/25 04:42:35;;;;;;;8.93;2.05;;;8.20;99.90;;;;;;5027619;28;20414;-68
2024/01/25 04:45:01;;;;;;;8.38;1.67;;;8.30;99.90;;;;;;5028465;28;20112;-65
2024/01/25 04:47:26;;;;;;;5.20;1.65;;;8.30;99.90;;;;;;5027244;28;20025;-69
2024/01/25 04:49:52;;;;;;;8.82;2.03;;;8.20;99.90;;;;;;5028943;28;20854;-64
2024/01/25 04:52:17;;;;;;;6.45;1.67;;;8.20;99.90;;;;;;5026147;28;20028;-66
2024/01/25 04:54:43;;;;;;;7.10;2.05;;;8.20;99.90;;;;;;5024877;28;20112;-67
2024/01/25 04:57:08;;;;;;;6.53;1.15;;;8.20;99.90;;;;;;5028138;28;20025;-66
2024/01/25 05:02:04;;;;;;;9.90;1.95;;;8.10;99.90;;;;;;4685472;27;10232718;-67
2024/01/25 05:04:31;;;;;;;;;;;8.10;99.90;;;;;;5072841;28;20047;-65
2024/01/25 05:06:57;;;;;;;7.47;1.90;;;8.10;99.90;;;;;;5078030;28;19912;-65
2024/01/25 05:09:22;;;;;;;7.90;1.93;;;8.10;99.90;;;;;;5080264;28;21641;-64
2024/01/25 05:11:48;;;;;;;11.70;2.20;;;8.10;99.90;;;;;;5079322;28;21164;-70
2024/01/25 05:14:14;;;;;;;8.67;2.73;;;8.10;99.90;;;;;;5083821;28;20497;-66
2024/01/25 05:16:39;;;;;;;7.82;1.65;;;8.20;99.90;;;;;;5083329;28;20077;-76
2024/01/25 05:19:05;;;;;;;7.35;1.85;;;8.20;99.90;;;;;;5075782;28;20421;-71
2024/01/25 05:21:31;;;;;;;9.35;2.05;;;8.20;99.90;;;;;;5076138;28;20415;-65
2024/01/25 05:23:57;;;;;;;5.95;1.70;;;8.20;99.90;;;;;;5076770;28;20356;-65
2024/01/25 05:26:22;;;;;;;6.83;2.07;;;8.20;99.90;;;;;;5081639;28;21107;-64
2024/01/25 05:28:48;;;;;;;7.55;1.63;;;8.20;99.90;;;;;;5082254;28;20038;-65
2024/01/25 05:31:14;;;;;;;8.35;2.10;;;8.20;99.90;;;;;;5081354;28;20945;-64
2024/01/25 05:34:42;;;;;;;7.80;1.45;;;8.30;99.90;;;;;;4776965;27;7995362;-65
2024/01/25 05:37:08;;;;;;;10.65;2.33;;;8.30;99.90;;;;;;5074040;28;20579;-65
2024/01/25 05:39:33;;;;;;;8.83;1.70;;;8.30;99.90;;;;;;5077072;28;21312;-75
2024/01/25 05:41:59;;;;;;;8.75;2.20;;;8.30;99.90;;;;;;5076901;28;20028;-65
2024/01/25 05:44:25;;;;;;;8.10;1.90;;;8.20;99.90;;;;;;5072365;28;20416;-68
2024/01/25 05:46:51;;;;;;;7.35;1.75;;;8.20;99.90;;;;;;5072395;28;20032;-68
2024/01/25 05:49:16;;;;;;;8.23;1.83;;;8.30;99.90;;;;;;5076547;28;20699;-71
2024/01/25 05:51:42;;;;;;;8.98;1.98;;;8.20;99.90;;;;;;5080813;28;21619;-67
2024/01/25 05:54:07;;;;;;;14.70;2.25;;;8.20;99.90;;;;;;5080831;28;20040;-65
2024/01/25 05:56:33;;;;;;;6.65;1.52;;;8.20;99.90;;;;;;5083131;28;20061;-66
2024/01/25 05:58:58;;;;;;;7.68;1.70;;;8.20;99.90;;;;;;5076980;28;20364;-65
2024/01/25 06:01:24;;;;;;;9.77;1.60;;;8.20;99.90;;;;;;5074834;28;20066;-66
2024/01/25 06:03:50;;;;;;;10.27;2.50;;;8.20;99.90;;;;;;5074693;28;20736;-66
2024/01/25 06:06:16;;;;;;;7.70;2.13;;;8.20;99.90;;;;;;5073094;28;20119;-65
2024/01/25 06:08:41;;;;;;;6.63;1.58;;;8.20;99.90;;;;;;5075568;28;20528;-68
2024/01/25 06:11:08;;;;;;;10.55;1.73;;;8.20;99.90;;;;;;5074745;28;20044;-66
2024/01/25 06:13:34;;;;;;;6.40;1.38;;;8.20;99.90;;;;;;5076670;28;20032;-68
2024/01/25 06:15:59;;;;;;;11.65;2.10;;;8.10;99.90;;;;;;5074546;28;20023;-66
2024/01/25 06:18:26;;;;;;;6.70;1.55;;;8.10;99.90;;;;;;5074673;28;20038;-66
2024/01/25 06:20:52;;;;;;;7.93;1.80;;;8.10;99.90;;;;;;5079364;28;20188;-65
2024/01/25 06:23:17;;;;;;;6.63;1.63;;;8.00;99.90;;;;;;5076218;28;20260;-65
2024/01/25 06:25:43;;;;;;;9.40;1.60;;;8.00;99.90;;;;;;5075723;28;20074;-66
2024/01/25 06:28:09;;;;;;;14.32;2.83;;;8.00;99.90;;;;;;5076159;28;20404;-65
2024/01/25 06:30:34;;;;;;;7.07;2.15;;;8.00;99.90;;;;;;5077069;28;20032;-64
2024/01/25 06:33:00;;;;;;;8.93;1.85;;;8.00;99.90;;;;;;5074993;28;20048;-67
2024/01/25 06:35:25;;;;;;;8.43;2.45;;;8.00;99.90;;;;;;5088163;27;20081;-65
2024/01/25 06:37:51;;;;;;;7.60;1.90;;;8.00;99.90;;;;;;5092936;27;20094;-67
2024/01/25 06:40:16;;;;;;;10.15;1.70;;;8.00;99.90;;;;;;5089629;27;20101;-65
2024/01/25 06:42:42;;;;;;;9.95;2.20;;;8.10;99.90;;;;;;5091780;27;20160;-66
2024/01/25 06:45:09;;;;;;;8.35;2.60;;;8.00;99.90;;;;;;5083405;27;20035;-63
2024/01/25 06:47:34;;;;;;;9.93;1.67;;;8.00;99.90;;;;;;5080950;28;20024;-65
2024/01/25 06:50:00;;;;;;;26.05;11.38;;;8.00;99.90;;;;;;5084127;28;20454;-65
2024/01/25 06:52:26;;;;;;;8.93;2.55;;;8.00;99.90;;;;;;5082412;27;20185;-65
2024/01/25 06:54:52;;;;;;;10.68;2.38;;;8.00;99.90;;;;;;5086488;27;20454;-70
2024/01/25 06:57:17;;;;;;;10.07;2.15;;;8.10;99.90;;;;;;5062459;28;20031;-70
2024/01/25 06:59:43;;;;;;;6.55;1.75;;;8.10;99.90;;;;;;5088732;28;20039;-65
2024/01/25 07:02:08;;;;;;;10.30;2.30;;;8.10;99.90;;;;;;5076133;28;20085;-66
2024/01/25 07:04:34;;;;;;;9.95;2.53;;;8.10;99.90;;;;;;5085283;28;20045;-69
2024/01/25 07:07:00;;;;;;;11.23;2.35;;;8.00;99.90;;;;;;5083852;27;20274;-75
2024/01/25 07:09:26;;;;;;;12.18;4.70;;;8.10;99.90;;;;;;5087340;27;20031;-68
2024/01/25 07:11:51;;;;;;;10.57;2.60;;;8.10;99.90;;;;;;5083313;28;20143;-67
2024/01/25 07:14:17;;;;;;;5.78;1.38;;;8.10;99.90;;;;;;5084745;28;20042;-67
2024/01/25 07:16:43;;;;;;;7.32;1.92;;;8.10;99.90;;;;;;5079729;28;20038;-67
2024/01/25 07:19:08;;;;;;;11.57;1.67;;;8.10;99.90;;;;;;5083357;27;20726;-67
2024/01/25 10:10:13;;;;;;;10.87;2.60;;;9.10;99.90;;;;;;6098836;22;28640324;-64
2024/01/25 10:12:41;;;;;;;9.00;1.92;;;9.10;99.90;;;;;;6192188;23;20200;-69
2024/01/25 10:15:07;;;;;;;8.95;1.77;;;9.20;99.90;;;;;;6198746;23;20000;-69
2024/01/25 10:17:33;;;;;;;10.00;1.90;;;9.10;99.90;;;;;;6201691;23;20062;-66
2024/01/25 10:20:01;;;;;;;12.57;2.28;;;9.20;99.90;;;;;;6197496;23;20004;-64
2024/01/25 10:22:27;;;;;;;6.68;1.65;;;9.20;99.90;;;;;;6200913;23;20441;-64
2024/01/25 10:24:55;;;;;;;9.57;2.20;;;9.20;99.90;;;;;;6204739;23;20105;-65
2024/01/25 10:27:22;;;;;;;7.57;1.95;;;9.10;99.90;;;;;;6202213;23;20011;-70
2024/01/25 10:29:48;;;;;;;10.10;2.65;;;9.20;99.90;;;;;;6178679;23;20012;-65
2024/01/25 10:32:15;;;;;;;9.20;1.88;;;9.20;99.90;;;;;;6203229;23;20011;-64
2024/01/25 10:34:42;;;;;;;8.60;2.08;;;9.20;99.90;;;;;;6210167;23;19996;-64
2024/01/25 10:37:08;;;;;;;6.63;1.48;;;9.20;99.90;;;;;;6232251;23;20405;-75
2024/01/25 10:39:34;;;;;;;6.30;1.77;;;9.30;99.90;;;;;;6234016;23;20008;-65
2024/01/25 10:42:00;;;;;;;8.68;2.08;;;9.30;99.90;;;;;;6231890;23;20006;-66
2024/01/25 10:44:26;;;;;;;8.85;3.05;;;9.20;99.90;;;;;;6233469;23;20016;-68
2024/01/25 10:46:54;;;;;;;11.25;2.25;;;9.10;99.90;;;;;;6228411;23;20000;-70
2024/01/25 10:49:20;;;;;;;8.98;2.88;;;9.10;99.90;;;;;;6226700;23;20008;-67
2024/01/25 10:51:46;;;;;;;10.07;1.48;;;9.10;99.90;;;;;;6222857;23;20011;-68
2024/01/25 10:54:14;;;;;;;12.73;2.47;;;9.10;99.90;;;;;;6226334;23;20028;-65
2024/01/25 10:56:43;;;;;;;9.13;2.33;;;9.10;99.90;;;;;;6197180;23;20499;-67
2024/01/25 10:59:10;;;;;;;7.57;1.45;;;9.10;99.90;;;;;;6225527;23;20611;-76
2024/01/25 11:01:36;;;;;;;13.45;2.30;;;9.10;99.90;;;;;;6224380;23;20389;-66
2024/01/25 11:04:02;;;;;;;9.18;1.95;;;9.10;99.90;;;;;;6226318;23;20012;-64
2024/01/25 11:06:28;;;;;;;9.45;1.60;;;9.10;99.90;;;;;;6220138;23;20079;-65
2024/01/25 11:09:06;;;;;;;9.23;2.47;;;9.10;99.90;;;;;;6223516;23;20050;-65
2024/01/25 11:11:32;;;;;;;8.10;1.88;;;9.10;99.90;;;;;;6220952;23;20064;-67
2024/01/25 11:13:59;;;;;;;10.80;1.75;;;9.10;99.90;;;;;;6225175;23;20102;-67
2024/01/25 11:16:30;;;;;;;10.27;2.30;;;9.10;99.90;;;;;;6225725;23;20000;-67
2024/01/25 11:19:05;;;;;;;10.32;1.63;;;9.10;99.90;;;;;;6227606;23;20281;-64
2024/01/25 11:21:50;;;;;;;7.38;1.70;;;9.10;99.90;;;;;;6222387;23;20073;-71
2024/01/25 11:24:16;;;;;;;9.50;1.95;;;9.10;99.90;;;;;;6226909;23;20075;-69
2024/01/25 11:26:45;;;;;;;7.85;1.95;;;9.10;99.90;;;;;;6225501;23;20011;-70
2024/01/25 11:29:20;;;;;;;5.53;1.70;;;9.10;99.90;;;;;;6226624;23;20047;-65
2024/01/25 11:31:47;;;;;;;5.90;1.17;;;9.10;99.90;;;;;;6226680;23;20335;-69
2024/01/25 11:34:17;;;;;;;8.32;2.08;;;9.20;99.90;;;;;;6196374;23;20404;-65
2024/01/25 11:36:44;;;;;;;8.55;2.00;;;9.20;99.90;;;;;;6225804;23;20031;-69
2024/01/25 11:39:11;;;;;;;10.82;1.70;;;9.30;99.90;;;;;;6226289;23;20000;-69
2024/01/25 11:41:36;;;;;;;8.73;2.03;;;9.30;99.90;;;;;;6197708;23;20024;-68
2024/01/25 11:44:03;;;;;;;7.68;2.15;;;9.30;99.90;;;;;;6199132;23;20093;-69
2024/01/25 11:46:30;;;;;;;8.43;2.00;;;9.40;99.90;;;;;;6225649;23;20815;-66
2024/01/25 11:48:56;;;;;;;6.70;1.50;;;9.40;99.90;;;;;;6227802;23;20071;-65
2024/01/25 11:51:22;;;;;;;12.05;2.15;;;9.30;99.90;;;;;;6224763;23;20122;-66
2024/01/25 11:53:47;;;;;;;8.07;1.63;;;9.30;99.90;;;;;;6226124;23;20007;-68
2024/01/25 11:56:19;;;;;;;7.47;2.13;;;9.30;99.90;;;;;;6226293;23;20008;-65
2024/01/25 11:58:46;;;;;;;12.20;1.83;;;9.30;99.90;;;;;;6224726;23;20181;-70
2024/01/25 12:01:13;;;;;;;11.13;2.00;;;9.30;99.90;;;;;;6226759;23;20047;-64
2024/01/25 12:03:40;;;;;;;9.63;2.20;;;9.30;99.90;;;;;;6226408;23;20325;-66
2024/01/25 12:06:09;;;;;;;8.48;2.05;;;9.40;99.90;;;;;;6224203;23;20004;-69
2024/01/25 12:08:35;;;;;;;8.30;2.08;;;9.30;99.90;;;;;;6225617;23;20004;-67
2024/01/25 12:11:08;;;;;;;7.68;1.80;;;9.30;99.90;;;;;;6226513;23;20094;-73
2024/01/25 12:13:36;;;;;;;9.60;2.08;;;9.30;99.90;;;;;;6227054;23;20004;-66
2024/01/25 12:16:03;;;;;;;7.45;2.15;;;9.30;99.90;;;;;;6226829;23;20004;-70
2024/01/25 12:18:30;;;;;;;4.07;1.85;;;9.30;99.90;;;;;;6226185;23;20007;-66
2024/01/25 12:20:58;;;;;;;9.75;1.77;;;9.20;99.90;;;;;;6227196;23;20070;-68
2024/01/25 12:23:31;;;;;;;8.68;1.83;;;9.20;99.90;;;;;;6224207;23;19996;-72
2024/01/25 12:25:59;;;;;;;10.55;2.30;;;9.20;99.90;;;;;;6224220;23;20641;-72
2024/01/25 12:28:28;;;;;;;10.48;3.10;;;9.20;99.90;;;;;;6223746;23;20008;-68
2024/01/25 12:30:53;;;;;;;15.45;8.25;;;9.20;99.90;;;;;;6225359;23;20685;-70
2024/01/25 12:33:19;;;;;;;25.38;12.00;;;9.20;99.90;;;;;;6224512;23;20000;-68
2024/01/25 12:35:45;;;;;;;22.60;13.30;;;9.20;99.90;;;;;;6223969;23;20069;-70
2024/01/25 12:38:10;;;;;;;3.88;1.38;;;9.20;99.90;;;;;;6225953;23;20007;-71
2024/01/25 12:40:36;;;;;;;8.23;2.05;;;9.10;99.90;;;;;;6197917;23;20061;-69
2024/01/25 12:43:01;;;;;;;8.10;3.00;;;9.10;99.90;;;;;;6219019;23;20007;-68
2024/01/25 12:45:27;;;;;;;7.15;2.13;;;9.10;99.90;;;;;;6223480;23;20165;-71
2024/01/25 12:47:53;;;;;;;8.97;1.77;;;9.10;99.90;;;;;;6193278;23;20360;-70
2024/01/25 12:50:29;;;;;;;8.40;1.85;;;9.10;99.90;;;;;;6219860;23;19992;-78
2024/01/25 12:52:56;;;;;;;4.97;1.42;;;9.10;99.90;;;;;;6192813;23;20461;-71
2024/01/25 12:55:22;;;;;;;6.03;2.15;;;9.10;99.90;;;;;;6226020;23;20000;-64
2024/01/25 12:57:47;;;;;;;6.55;1.75;;;9.10;99.90;;;;;;6196895;23;20084;-68
2024/01/25 13:00:13;;;;;;;8.90;2.22;;;9.10;99.90;;;;;;6223710;23;20004;-65
2024/01/25 13:02:39;;;;;;;8.02;2.05;;;9.10;99.90;;;;;;6220630;23;19996;-70
2024/01/25 13:05:05;;;;;;;9.50;1.97;;;9.10;99.90;;;;;;6220536;23;20387;-65
2024/01/25 13:07:30;;;;;;;16.97;3.30;;;9.10;99.90;;;;;;6220008;23;20004;-67
2024/01/25 13:09:56;;;;;;;9.63;1.58;;;9.10;99.90;;;;;;6221355;23;20449;-70
2024/01/25 13:12:21;;;;;;;5.50;1.10;;;9.20;99.90;;;;;;6218675;23;20012;-65
2024/01/25 13:14:47;;;;;;;6.97;1.45;;;9.20;99.90;;;;;;6220481;23;20062;-66
2024/01/25 13:17:13;;;;;;;4.15;1.35;;;9.20;99.90;;;;;;6191685;23;20428;-70
2024/01/25 13:20:09;;;;;;;5.57;1.45;;;9.10;99.90;;;;;;4028853;27;28867886;-70
2024/01/25 13:22:35;;;;;;;4.00;2.13;;;9.20;99.90;;;;;;5048071;28;20530;-67
2024/01/25 13:25:01;;;;;;;4.85;1.23;;;9.20;99.90;;;;;;5058076;28;20021;-65
2024/01/25 13:27:28;;;;;;;6.30;1.23;;;9.20;99.90;;;;;;5059810;28;20040;-65
2024/01/25 13:29:54;;;;;;;5.72;1.83;;;9.20;99.90;;;;;;5062729;28;20035;-69
2024/01/25 13:32:20;;;;;;;4.45;1.20;;;9.20;99.90;;;;;;5060169;28;20027;-71
2024/01/25 13:34:45;;;;;;;8.13;1.98;;;9.30;99.90;;;;;;5062842;28;20035;-71
2024/01/25 13:37:11;;;;;;;6.00;1.23;;;9.30;99.90;;;;;;5060216;28;20579;-70
2024/01/25 13:39:37;;;;;;;9.02;1.83;;;9.30;99.90;;;;;;5065763;28;20033;-70
2024/01/25 13:42:02;;;;;;;6.22;1.48;;;9.40;99.90;;;;;;5066904;28;20042;-71
2024/01/25 13:44:28;;;;;;;7.40;1.17;;;9.40;99.90;;;;;;5049032;28;20808;-66
2024/01/25 13:46:55;;;;;;;9.23;1.52;;;9.40;99.90;;;;;;5061796;28;20017;-69
2024/01/25 13:49:21;;;;;;;5.28;1.63;;;9.40;99.90;;;;;;5067359;28;20077;-71
2024/01/25 13:51:47;;;;;;;10.50;1.77;;;9.50;99.90;;;;;;5059096;28;20509;-72
2024/01/25 13:54:13;;;;;;;7.50;1.50;;;9.70;99.90;;;;;;5059482;28;20052;-65
2024/01/25 13:56:39;;;;;;;7.47;1.67;;;10.60;99.90;;;;;;5061527;28;20020;-73
2024/01/25 13:59:05;;;;;;;6.75;1.48;;;11.60;98.10;;;;;;5061133;28;20052;-67
2024/01/25 14:01:31;;;;;;;7.78;1.38;;;12.00;97.70;;;;;;5063834;28;20031;-70
2024/01/25 14:03:57;;;;;;;9.25;1.83;;;12.80;95.90;;;;;;5062023;28;20124;-70
2024/01/25 14:06:22;;;;;;;8.00;1.85;;;13.60;93.10;;;;;;5062887;28;20029;-70
2024/01/25 14:08:48;;;;;;;7.15;1.65;;;14.10;92.10;;;;;;5063022;28;20727;-66
2024/01/25 14:11:14;;;;;;;5.68;1.45;;;14.80;88.10;;;;;;5060387;28;20038;-66
2024/01/25 14:13:40;;;;;;;5.82;1.85;;;15.10;85.20;;;;;;5061331;28;20035;-70
2024/01/25 14:16:06;;;;;;;3.80;1.30;;;15.40;81.30;;;;;;5059397;28;20020;-66
2024/01/25 14:18:37;;;;;;;3.88;1.33;;;15.10;81.90;;;;;;5045660;28;20067;-66
2024/01/25 14:21:03;;;;;;;5.00;1.67;;;15.60;80.20;;;;;;5041227;28;20056;-71
2024/01/25 14:23:29;;;;;;;6.80;1.30;;;15.40;77.60;;;;;;5046116;28;20029;-71
2024/01/25 14:25:55;;;;;;;9.48;2.22;;;14.00;80.40;;;;;;5028287;28;20039;-72
2024/01/25 14:28:20;;;;;;;3.63;1.50;;;12.80;84.90;;;;;;5025792;28;21424;-72
2024/01/25 14:30:47;;;;;;;5.28;1.65;;;11.90;88.50;;;;;;5021704;28;20322;-72
2024/01/25 14:33:13;;;;;;;7.63;1.48;;;11.10;91.00;;;;;;5006300;28;20032;-67
2024/01/25 14:35:39;;;;;;;6.20;1.48;;;10.50;92.20;;;;;;5027654;28;20041;-66
2024/01/25 14:38:05;;;;;;;4.38;1.25;;;10.10;93.50;;;;;;5028416;28;20389;-71
2024/01/25 14:40:30;;;;;;;4.10;1.17;;;9.80;93.90;;;;;;5024815;28;20631;-68
2024/01/25 14:42:57;;;;;;;6.10;1.40;;;9.60;94.40;;;;;;5030630;28;20190;-71
2024/01/25 14:45:22;;;;;;;5.68;1.30;;;9.30;94.90;;;;;;5021166;28;20048;-66
2024/01/25 14:47:48;;;;;;;4.57;1.77;;;9.20;96.10;;;;;;5015178;28;20117;-69
2024/01/25 14:50:13;;;;;;;6.53;1.70;;;9.10;96.60;;;;;;5008477;28;20614;-69
2024/01/25 14:52:39;;;;;;;4.95;1.58;;;9.00;97.10;;;;;;5024810;28;20523;-64
2024/01/25 14:55:05;;;;;;;6.57;1.60;;;8.90;97.40;;;;;;5028089;28;20036;-69
2024/01/25 14:57:31;;;;;;;6.13;2.03;;;8.80;98.00;;;;;;5024878;28;20033;-69
2024/01/25 14:59:56;;;;;;;7.55;1.75;;;8.80;98.10;;;;;;5017307;28;20029;-67
2024/01/25 15:02:22;;;;;;;7.70;1.73;;;8.70;98.20;;;;;;5030975;28;20033;-69
2024/01/25 15:04:48;;;;;;;6.05;2.08;;;8.70;98.50;;;;;;5023426;28;20044;-70
2024/01/25 15:07:14;;;;;;;3.97;1.60;;;8.70;98.80;;;;;;5009011;28;20199;-67
2024/01/25 15:09:40;;;;;;;6.75;1.77;;;8.60;99.30;;;;;;5016302;28;20124;-71
2024/01/25 15:12:07;;;;;;;4.85;1.10;;;8.60;99.30;;;;;;5025225;28;20032;-67
2024/01/25 15:14:33;;;;;;;7.15;1.35;;;8.60;99.20;;;;;;5028255;28;20370;-66
2024/01/25 15:16:59;;;;;;;5.10;1.63;;;8.50;99.30;;;;;;5027430;28;20027;-67
2024/01/25 15:19:24;;;;;;;6.60;1.20;;;8.50;99.80;;;;;;5019647;28;20148;-66
2024/01/25 15:21:50;;;;;;;8.43;2.13;;;8.50;99.90;;;;;;5028857;28;20394;-65
2024/01/25 15:24:16;;;;;;;8.13;1.73;;;8.40;99.90;;;;;;5026108;28;20119;-66
2024/01/25 15:26:42;;;;;;;9.32;1.67;;;8.50;99.90;;;;;;5024823;28;20025;-66
2024/01/25 15:29:07;;;;;;;4.40;0.93;;;8.40;99.90;;;;;;5026867;28;20037;-68
2024/01/25 15:31:33;;;;;;;6.18;1.55;;;8.40;99.90;;;;;;5023869;28;20017;-66
2024/01/25 15:33:58;;;;;;;6.35;1.30;;;8.40;99.90;;;;;;5028900;28;20056;-62
2024/01/25 15:36:24;;;;;;;4.70;1.07;;;8.30;99.90;;;;;;5030660;28;20025;-78
2024/01/25 15:38:50;;;;;;;8.30;2.15;;;8.30;99.90;;;;;;5028122;28;21075;-60
2024/01/25 15:41:18;;;;;;;6.55;1.98;;;8.20;99.90;;;;;;5029354;28;20053;-66
2024/01/25 15:43:44;;;;;;;8.65;2.25;;;8.20;99.90;;;;;;5030289;28;20040;-66